createdAt,value
2023-02-27T00:00:02.000Z,73.2
2023-02-27T00:01:19.000Z,73.3
2023-02-27T00:02:35.000Z,73.5
2023-02-27T00:03:51.000Z,73.5
2023-02-27T00:05:07.000Z,73.7
2023-02-27T00:06:23.000Z,73.7
2023-02-27T00:07:39.000Z,73.5
2023-02-27T00:08:55.325Z,73.5
2023-02-27T00:10:11.531Z,73.5
2023-02-27T00:11:27.000Z,73.3
2023-02-27T00:12:43.000Z,73.5
2023-02-27T00:14:00.000Z,73.6
2023-02-27T00:15:16.000Z,73.8
2023-02-27T00:16:32.000Z,73.8
2023-02-27T00:17:48.000Z,74
2023-02-27T00:19:04.000Z,74
2023-02-27T00:20:21.000Z,73.9
2023-02-27T00:21:37.000Z,74
2023-02-27T00:22:53.000Z,74.1
2023-02-27T00:24:08.000Z,74.1
2023-02-27T00:25:24.000Z,74.2
2023-02-27T00:26:41.000Z,74.4
2023-02-27T00:27:57.000Z,74.3
2023-02-27T00:29:13.000Z,74.2
2023-02-27T00:30:29.000Z,74.6
2023-02-27T00:31:45.000Z,74.7
2023-02-27T00:33:02.000Z,74.8
2023-02-27T00:34:18.233Z,74.8
2023-02-27T00:35:34.000Z,74.7
2023-02-27T00:36:50.000Z,74.4
2023-02-27T00:38:06.000Z,74.2
2023-02-27T00:39:23.000Z,74.2
2023-02-27T00:40:38.000Z,74.2
2023-02-27T00:41:54.000Z,74.3
2023-02-27T00:43:10.000Z,74.5
2023-02-27T00:44:26.000Z,74.6
2023-02-27T00:45:43.000Z,74.6
2023-02-27T00:46:59.000Z,74.4
2023-02-27T00:48:15.000Z,74.4
2023-02-27T00:49:31.000Z,74.5
2023-02-27T00:50:47.000Z,74.6
2023-02-27T00:52:04.000Z,74.6
2023-02-27T00:53:20.000Z,74.6
2023-02-27T00:54:36.345Z,74.6
2023-02-27T00:55:52.000Z,74.5
2023-02-27T00:57:07.000Z,74.5
2023-02-27T00:58:23.000Z,74.8
2023-02-27T00:59:40.000Z,74.8
2023-02-27T01:00:56.000Z,75
2023-02-27T01:02:12.000Z,75.3
2023-02-27T01:03:28.000Z,75.4
2023-02-27T01:04:44.000Z,75.4
2023-02-27T01:06:01.000Z,75.2
2023-02-27T01:07:17.000Z,75.4
2023-02-27T01:08:33.000Z,75.5
2023-02-27T01:09:49.000Z,75.4
2023-02-27T01:11:05.000Z,75.3
2023-02-27T01:12:22.000Z,75.4
2023-02-27T01:13:37.000Z,75.4
2023-02-27T01:14:53.000Z,75.5
2023-02-27T01:16:09.000Z,75.6
2023-02-27T01:17:25.000Z,75.5
2023-02-27T01:18:42.000Z,75.5
2023-02-27T01:19:58.000Z,75.6
2023-02-27T01:21:14.000Z,75.5
2023-02-27T01:22:30.000Z,75.3
2023-02-27T01:23:46.000Z,75.4
2023-02-27T01:25:03.041Z,75.5
2023-02-27T01:26:19.000Z,75.4
2023-02-27T01:27:35.000Z,75.3
2023-02-27T01:28:51.000Z,75.3
2023-02-27T01:30:06.000Z,75.5
2023-02-27T01:31:23.000Z,75.6
2023-02-27T01:32:39.000Z,75.6
2023-02-27T01:33:55.000Z,75.4
2023-02-27T01:35:11.000Z,75.3
2023-02-27T01:36:27.000Z,75.3
2023-02-27T01:37:43.979Z,75.4
2023-02-27T01:39:00.000Z,75.5
2023-02-27T01:40:16.000Z,75.5
2023-02-27T01:41:32.000Z,75.4
2023-02-27T01:42:48.000Z,75.4
2023-02-27T01:44:05.000Z,75.3
2023-02-27T01:45:21.000Z,75.2
2023-02-27T01:46:36.000Z,75.1
2023-02-27T01:47:52.000Z,75.2
2023-02-27T01:49:08.000Z,75.2
2023-02-27T01:50:24.000Z,75
2023-02-27T01:51:41.000Z,75.1
2023-02-27T01:52:57.000Z,75
2023-02-27T01:54:13.000Z,75.4
2023-02-27T01:55:29.000Z,75.3
2023-02-27T01:56:45.000Z,75.3
2023-02-27T01:58:02.000Z,75.3
2023-02-27T01:59:18.000Z,75.3
2023-02-27T02:00:34.000Z,75.5
2023-02-27T02:01:50.000Z,75.6
2023-02-27T02:03:05.887Z,75.6
2023-02-27T02:04:22.000Z,75.6
2023-02-27T02:05:38.000Z,75.5
2023-02-27T02:06:54.000Z,75.3
2023-02-27T02:08:10.000Z,75.4
2023-02-27T02:09:26.000Z,75.5
2023-02-27T02:10:43.000Z,75.6
2023-02-27T02:11:59.000Z,75.6
2023-02-27T02:13:15.000Z,75.7
2023-02-27T02:14:31.000Z,75.9
2023-02-27T02:15:47.840Z,76
2023-02-27T02:17:04.000Z,76.1
2023-02-27T02:18:20.000Z,76.1
2023-02-27T02:19:35.000Z,76.1
2023-02-27T02:20:51.000Z,76
2023-02-27T02:22:07.000Z,75.9
2023-02-27T02:23:24.000Z,76
2023-02-27T02:24:40.000Z,75.9
2023-02-27T02:25:56.000Z,75.9
2023-02-27T02:27:12.000Z,76.2
2023-02-27T02:28:28.000Z,76.2
2023-02-27T02:29:45.000Z,76.3
2023-02-27T02:31:01.000Z,76.4
2023-02-27T02:32:17.000Z,76.6
2023-02-27T02:33:33.000Z,76.8
2023-02-27T02:34:49.000Z,77
2023-02-27T02:36:05.000Z,77
2023-02-27T02:37:21.000Z,77
2023-02-27T02:38:37.000Z,77.2
2023-02-27T02:39:53.000Z,77.3
2023-02-27T02:41:09.737Z,77.3
2023-02-27T02:42:25.000Z,77.3
2023-02-27T02:43:42.000Z,77.3
2023-02-27T02:44:58.000Z,77.1
2023-02-27T02:46:14.000Z,77
2023-02-27T02:47:30.000Z,76.8
2023-02-27T02:48:46.000Z,76.8
2023-02-27T02:50:03.000Z,76.8
2023-02-27T02:51:19.000Z,77.1
2023-02-27T02:52:34.000Z,77.1
2023-02-27T02:53:50.000Z,76.9
2023-02-27T02:55:06.000Z,76.8
2023-02-27T02:56:23.000Z,77
2023-02-27T02:57:39.000Z,76.8
2023-02-27T02:58:55.000Z,76.8
2023-02-27T03:00:10.000Z,76.9
2023-02-27T03:01:26.000Z,76.7
2023-02-27T03:02:43.000Z,76.6
2023-02-27T03:03:59.272Z,76.6
2023-02-27T03:05:15.000Z,76.6
2023-02-27T03:06:31.647Z,76.6
2023-02-27T03:07:47.000Z,76.6
2023-02-27T03:09:04.000Z,76.6
2023-02-27T03:10:20.000Z,76.6
2023-02-27T03:11:36.000Z,76.5
2023-02-27T03:12:52.000Z,76.4
2023-02-27T03:14:08.000Z,76.4
2023-02-27T03:15:25.000Z,76.2
2023-02-27T03:16:40.000Z,76.4
2023-02-27T03:17:56.000Z,76.3
2023-02-27T03:19:12.000Z,76.3
2023-02-27T03:20:28.000Z,76.4
2023-02-27T03:21:45.000Z,76.3
2023-02-27T03:23:01.000Z,76.3
2023-02-27T03:24:17.000Z,76.5
2023-02-27T03:25:33.000Z,76.8
2023-02-27T03:26:49.000Z,77.1
2023-02-27T03:28:06.000Z,77.1
2023-02-27T03:29:22.000Z,77
2023-02-27T03:30:38.000Z,77
2023-02-27T03:31:54.550Z,76.8
2023-02-27T03:33:09.000Z,76.6
2023-02-27T03:34:26.000Z,76.8
2023-02-27T03:35:42.000Z,76.8
2023-02-27T03:36:58.409Z,76.8
2023-02-27T03:38:14.000Z,76.8
2023-02-27T03:39:30.000Z,76.8
2023-02-27T03:40:46.000Z,77
2023-02-27T03:42:03.000Z,77.1
2023-02-27T03:43:19.000Z,77.2
2023-02-27T03:44:35.000Z,77.3
2023-02-27T03:45:51.000Z,77.4
2023-02-27T03:47:07.000Z,77.3
2023-02-27T03:48:24.000Z,77.2
2023-02-27T03:49:39.000Z,77.1
2023-02-27T03:50:55.000Z,77
2023-02-27T03:52:11.000Z,76.8
2023-02-27T03:53:27.000Z,76.8
2023-02-27T03:54:44.000Z,76.6
2023-02-27T03:56:00.000Z,76.8
2023-02-27T03:57:16.462Z,76.6
2023-02-27T03:58:32.000Z,76.6
2023-02-27T03:59:48.000Z,76.8
2023-02-27T04:01:05.000Z,76.6
2023-02-27T04:02:21.000Z,76.6
2023-02-27T04:03:37.000Z,76.6
2023-02-27T04:04:53.611Z,76.8
2023-02-27T04:06:08.000Z,76.8
2023-02-27T04:07:25.000Z,76.8
2023-02-27T04:08:41.000Z,76.8
2023-02-27T04:09:57.417Z,77
2023-02-27T04:11:13.603Z,77.2
2023-02-27T04:12:29.000Z,77.2
2023-02-27T04:13:46.000Z,77.3
2023-02-27T04:15:02.000Z,77.2
2023-02-27T04:16:18.000Z,77.2
2023-02-27T04:17:34.000Z,77.1
2023-02-27T04:18:50.000Z,77.2
2023-02-27T04:20:07.000Z,77.2
2023-02-27T04:21:23.000Z,77.3
2023-02-27T04:22:38.000Z,77.1
2023-02-27T04:23:54.000Z,77
2023-02-27T04:25:10.000Z,77
2023-02-27T04:26:27.000Z,77.1
2023-02-27T04:27:43.000Z,77.2
2023-02-27T04:28:59.000Z,77.2
2023-02-27T04:30:15.000Z,77.4
2023-02-27T04:31:31.000Z,77.5
2023-02-27T04:32:47.000Z,77.6
2023-02-27T04:34:04.000Z,77.8
2023-02-27T04:35:20.000Z,77.7
2023-02-27T04:36:36.000Z,77.7
2023-02-27T04:37:52.000Z,77.7
2023-02-27T04:39:07.000Z,77.6
2023-02-27T04:40:24.000Z,77.6
2023-02-27T04:41:40.000Z,77.5
2023-02-27T04:42:56.000Z,77.5
2023-02-27T04:44:12.000Z,77.5
2023-02-27T04:45:28.000Z,77.6
2023-02-27T04:46:45.000Z,77.7
2023-02-27T04:48:01.270Z,77.7
2023-02-27T04:49:17.000Z,77.9
2023-02-27T04:50:33.000Z,77.8
2023-02-27T04:51:49.852Z,77.9
2023-02-27T04:53:06.000Z,78.1
2023-02-27T04:54:22.000Z,78.2
2023-02-27T04:55:37.000Z,78.1
2023-02-27T04:56:53.000Z,77.9
2023-02-27T04:58:09.000Z,77.8
2023-02-27T04:59:26.000Z,77.7
2023-02-27T05:00:42.222Z,77.7
2023-02-27T05:01:58.000Z,77.8
2023-02-27T05:03:14.000Z,77.8
2023-02-27T05:04:30.000Z,78
2023-02-27T05:05:47.000Z,77.8
2023-02-27T05:07:03.000Z,77.9
2023-02-27T05:08:19.000Z,78
2023-02-27T05:09:35.000Z,78
2023-02-27T05:10:51.000Z,78
2023-02-27T05:12:07.000Z,77.9
2023-02-27T05:13:23.173Z,77.8
2023-02-27T05:14:39.000Z,77.8
2023-02-27T05:15:55.000Z,77.8
2023-02-27T05:17:11.000Z,77.7
2023-02-27T05:18:28.000Z,77.9
2023-02-27T05:19:44.000Z,78
2023-02-27T05:21:00.000Z,78
2023-02-27T05:22:16.000Z,78.2
2023-02-27T05:23:32.000Z,78.2
2023-02-27T05:24:48.000Z,78.2
2023-02-27T05:26:05.000Z,78.3
2023-02-27T05:27:21.000Z,78.3
2023-02-27T05:28:36.000Z,78.2
2023-02-27T05:29:52.000Z,78.2
2023-02-27T05:31:08.000Z,78.2
2023-02-27T05:32:25.000Z,78.2
2023-02-27T05:33:41.000Z,78.4
2023-02-27T05:34:57.000Z,78.4
2023-02-27T05:36:13.000Z,78.4
2023-02-27T05:37:29.000Z,78.4
2023-02-27T05:38:46.062Z,78.4
2023-02-27T05:40:02.000Z,78.5
2023-02-27T05:41:18.000Z,78.5
2023-02-27T05:42:34.000Z,78.4
2023-02-27T05:43:50.000Z,78.6
2023-02-27T05:45:06.000Z,78.7
2023-02-27T05:46:22.000Z,78.8
2023-02-27T05:47:38.000Z,78.9
2023-02-27T05:48:54.000Z,78.9
2023-02-27T05:50:10.000Z,78.9
2023-02-27T05:51:27.000Z,78.9
2023-02-27T05:52:43.000Z,78.8
2023-02-27T05:53:59.000Z,79
2023-02-27T05:55:15.000Z,79
2023-02-27T05:56:31.000Z,78.9
2023-02-27T05:57:48.000Z,78.9
2023-02-27T05:59:04.000Z,78.9
2023-02-27T06:00:20.000Z,78.8
2023-02-27T06:01:35.000Z,78.9
2023-02-27T06:02:51.000Z,78.8
2023-02-27T06:04:08.000Z,78.9
2023-02-27T06:05:24.000Z,78.9
2023-02-27T06:06:40.000Z,78.7
2023-02-27T06:07:56.000Z,78.6
2023-02-27T06:09:12.000Z,78.6
2023-02-27T06:10:29.000Z,78.7
2023-02-27T06:11:45.000Z,78.8
2023-02-27T06:13:01.000Z,78.7
2023-02-27T06:14:17.000Z,78.6
2023-02-27T06:15:33.000Z,78.6
2023-02-27T06:16:49.000Z,78.7
2023-02-27T06:18:05.000Z,78.9
2023-02-27T06:19:21.000Z,78.7
2023-02-27T06:20:37.000Z,78.8
2023-02-27T06:21:53.000Z,78.9
2023-02-27T06:23:09.000Z,78.8
2023-02-27T06:24:26.000Z,78.6
2023-02-27T06:25:42.000Z,78.5
2023-02-27T06:26:58.000Z,78.4
2023-02-27T06:28:14.000Z,78.3
2023-02-27T06:29:30.863Z,78.2
2023-02-27T06:30:47.000Z,78.2
2023-02-27T06:32:03.000Z,78.2
2023-02-27T06:33:19.460Z,78.2
2023-02-27T06:34:34.000Z,78.4
2023-02-27T06:35:50.000Z,78.4
2023-02-27T06:37:07.000Z,78.4
2023-02-27T06:38:23.000Z,78.3
2023-02-27T06:39:39.000Z,78
2023-02-27T06:40:55.000Z,77.9
2023-02-27T06:42:11.000Z,77.8
2023-02-27T06:43:28.000Z,77.8
2023-02-27T06:44:44.000Z,77.9
2023-02-27T06:46:00.000Z,78.1
2023-02-27T06:47:16.000Z,78.4
2023-02-27T06:48:32.000Z,78.6
2023-02-27T06:49:49.000Z,78.4
2023-02-27T06:51:04.000Z,78.4
2023-02-27T06:52:20.000Z,78.2
2023-02-27T06:53:36.000Z,78
2023-02-27T06:54:52.781Z,77.9
2023-02-27T06:56:09.000Z,77.9
2023-02-27T06:57:25.000Z,78
2023-02-27T06:58:41.000Z,78.1
2023-02-27T06:59:57.000Z,78
2023-02-27T07:01:13.000Z,77.9
2023-02-27T07:02:30.000Z,77.8
2023-02-27T07:03:46.000Z,77.7
2023-02-27T07:05:02.000Z,77.7
2023-02-27T07:06:18.000Z,77.5
2023-02-27T07:07:33.000Z,77.3
2023-02-27T07:08:50.000Z,77.3
2023-02-27T07:10:06.000Z,77.2
2023-02-27T07:11:22.000Z,77
2023-02-27T07:12:38.000Z,76.9
2023-02-27T07:13:54.000Z,77
2023-02-27T07:15:09.000Z,77
2023-02-27T07:16:26.000Z,77
2023-02-27T07:17:42.000Z,77
2023-02-27T07:18:58.000Z,76.8
2023-02-27T07:20:14.000Z,76.8
2023-02-27T07:21:30.000Z,76.8
2023-02-27T07:22:47.000Z,76.5
2023-02-27T07:24:03.000Z,76.4
2023-02-27T07:25:19.000Z,76.3
2023-02-27T07:26:35.661Z,76.1
2023-02-27T07:27:51.000Z,75.9
2023-02-27T07:29:08.000Z,75.7
2023-02-27T07:30:24.000Z,75.4
2023-02-27T07:31:39.000Z,75.4
2023-02-27T07:32:55.640Z,75.2
2023-02-27T07:34:11.000Z,74.8
2023-02-27T07:35:28.000Z,72.2
2023-02-27T07:36:44.000Z,66.6
2023-02-27T07:38:00.000Z,61.5
2023-02-27T07:39:16.000Z,58.4
2023-02-27T07:40:32.000Z,55.7
2023-02-27T07:41:49.000Z,53.6
2023-02-27T07:43:05.000Z,51.5
2023-02-27T07:44:21.000Z,50.1
2023-02-27T07:45:37.000Z,48.9
2023-02-27T07:46:53.000Z,47.4
2023-02-27T07:48:08.983Z,46.4
2023-02-27T07:49:25.000Z,45.5
2023-02-27T07:50:41.000Z,44.5
2023-02-27T07:51:57.000Z,43.9
2023-02-27T07:53:13.000Z,43.4
2023-02-27T07:54:30.000Z,42.4
2023-02-27T07:55:46.000Z,42.2
2023-02-27T07:57:02.000Z,41.7
2023-02-27T07:58:18.541Z,40.8
2023-02-27T07:59:34.000Z,39.9
2023-02-27T08:00:51.000Z,40.1
2023-02-27T08:02:07.000Z,39.7
2023-02-27T08:03:23.000Z,39.4
2023-02-27T08:04:38.000Z,38.6
2023-02-27T08:05:54.000Z,38.4
2023-02-27T08:07:10.000Z,38.2
2023-02-27T08:08:27.000Z,37.9
2023-02-27T08:09:43.000Z,37.6
2023-02-27T08:10:59.495Z,37.2
2023-02-27T08:12:15.000Z,37.1
2023-02-27T08:13:31.000Z,36.8
2023-02-27T08:14:48.000Z,36.5
2023-02-27T08:16:04.000Z,36.3
2023-02-27T08:17:20.000Z,36.1
2023-02-27T08:18:36.000Z,36.1
2023-02-27T08:19:52.000Z,35.9
2023-02-27T08:21:08.000Z,36
2023-02-27T08:22:24.000Z,36
2023-02-27T08:23:40.000Z,35.8
2023-02-27T08:24:56.000Z,36
2023-02-27T08:26:12.000Z,36
2023-02-27T08:27:29.000Z,35.7
2023-02-27T08:28:45.235Z,35.6
2023-02-27T08:30:01.000Z,35.1
2023-02-27T08:31:17.622Z,35.6
2023-02-27T08:32:33.000Z,35.2
2023-02-27T08:33:50.000Z,35.3
2023-02-27T08:35:06.000Z,35.2
2023-02-27T08:36:22.388Z,36
2023-02-27T08:37:37.000Z,35.7
2023-02-27T08:38:53.000Z,35.5
2023-02-27T08:40:10.000Z,35.3
2023-02-27T08:41:26.000Z,35.1
2023-02-27T08:42:42.000Z,35.4
2023-02-27T08:43:58.000Z,35.7
2023-02-27T08:45:14.000Z,35.2
2023-02-27T08:46:31.000Z,35
2023-02-27T08:47:47.000Z,34.5
2023-02-27T08:49:03.000Z,34.1
2023-02-27T08:50:19.000Z,33.6
2023-02-27T08:51:35.000Z,33.6
2023-02-27T08:52:52.000Z,33.2
2023-02-27T08:54:07.000Z,33.4
2023-02-27T08:55:23.000Z,33.5
2023-02-27T08:56:39.000Z,32.8
2023-02-27T08:57:55.000Z,32.4
2023-02-27T08:59:12.000Z,32.5
2023-02-27T09:00:28.000Z,32.4
2023-02-27T09:01:44.310Z,32.4
2023-02-27T09:03:00.000Z,32.1
2023-02-27T09:04:16.000Z,32.1
2023-02-27T09:05:32.000Z,32.1
2023-02-27T09:06:49.000Z,32.1
2023-02-27T09:08:05.000Z,31.2
2023-02-27T09:09:21.000Z,31.7
2023-02-27T09:10:36.000Z,31.8
2023-02-27T09:11:52.000Z,31.4
2023-02-27T09:13:09.000Z,31.2
2023-02-27T09:14:25.283Z,32.1
2023-02-27T09:15:41.000Z,32.3
2023-02-27T09:16:57.000Z,31.4
2023-02-27T09:18:13.000Z,31.2
2023-02-27T09:19:30.000Z,31.1
2023-02-27T09:20:46.000Z,31.4
2023-02-27T09:22:02.000Z,31.5
2023-02-27T09:23:18.000Z,30.8
2023-02-27T09:24:34.000Z,30.6
2023-02-27T09:25:51.000Z,30.6
2023-02-27T09:27:06.000Z,30.1
2023-02-27T09:28:22.000Z,30
2023-02-27T09:29:38.000Z,29.8
2023-02-27T09:30:54.000Z,30.4
2023-02-27T09:32:11.000Z,30.4
2023-02-27T09:33:27.000Z,30.1
2023-02-27T09:34:43.000Z,29.8
2023-02-27T09:35:59.000Z,30
2023-02-27T09:37:15.000Z,29.9
2023-02-27T09:38:32.000Z,30.3
2023-02-27T09:39:48.000Z,30
2023-02-27T09:41:04.000Z,29.9
2023-02-27T09:42:20.000Z,29.9
2023-02-27T09:43:35.000Z,29.1
2023-02-27T09:44:52.000Z,29.9
2023-02-27T09:46:08.000Z,30.3
2023-02-27T09:47:24.000Z,30.1
2023-02-27T09:48:40.000Z,30.1
2023-02-27T09:49:56.000Z,30
2023-02-27T09:51:13.000Z,30
2023-02-27T09:52:29.000Z,30.3
2023-02-27T09:53:45.000Z,29.8
2023-02-27T09:55:01.000Z,30.5
2023-02-27T09:56:17.000Z,31.3
2023-02-27T09:57:34.000Z,30.6
2023-02-27T09:58:50.000Z,30.4
2023-02-27T10:00:05.000Z,30.1
2023-02-27T10:01:21.000Z,30.1
2023-02-27T10:02:37.000Z,29.8
2023-02-27T10:03:54.000Z,29.8
2023-02-27T10:05:10.144Z,29.4
2023-02-27T10:06:26.000Z,29.5
2023-02-27T10:07:42.000Z,29.6
2023-02-27T10:08:58.000Z,29.3
2023-02-27T10:10:15.000Z,29.3
2023-02-27T10:11:31.000Z,29.3
2023-02-27T10:12:47.000Z,29
2023-02-27T10:14:03.000Z,29.2
2023-02-27T10:15:19.692Z,29.3
2023-02-27T10:16:34.904Z,29.5
2023-02-27T10:17:51.000Z,30.8
2023-02-27T10:19:07.000Z,33.1
2023-02-27T10:20:23.000Z,33.9
2023-02-27T10:21:39.000Z,35.5
2023-02-27T10:22:55.000Z,35.5
2023-02-27T10:24:12.000Z,35.7
2023-02-27T10:25:28.000Z,37.3
2023-02-27T10:26:44.000Z,39.2
2023-02-27T10:28:00.000Z,39.6
2023-02-27T10:29:16.000Z,39.8
2023-02-27T10:30:33.075Z,40.1
2023-02-27T10:31:49.000Z,40
2023-02-27T10:33:04.000Z,40.6
2023-02-27T10:34:20.000Z,41.2
2023-02-27T10:35:36.000Z,41.2
2023-02-27T10:36:53.064Z,41.3
2023-02-27T10:38:09.000Z,41.7
2023-02-27T10:39:25.000Z,42
2023-02-27T10:40:41.642Z,41.8
2023-02-27T10:41:57.000Z,41.5
2023-02-27T10:43:14.045Z,40.8
2023-02-27T10:44:30.000Z,40.8
2023-02-27T10:45:46.000Z,40.7
2023-02-27T10:47:02.000Z,39.9
2023-02-27T10:48:18.000Z,39.1
2023-02-27T10:49:34.000Z,39.7
2023-02-27T10:50:50.000Z,39.8
2023-02-27T10:52:06.000Z,40.7
2023-02-27T10:53:22.000Z,40.6
2023-02-27T10:54:38.000Z,41.3
2023-02-27T10:55:55.000Z,42.5
2023-02-27T10:57:11.000Z,42.6
2023-02-27T10:58:27.000Z,43.3
2023-02-27T10:59:43.000Z,43.2
2023-02-27T11:00:59.000Z,43.6
2023-02-27T11:02:16.000Z,44.4
2023-02-27T11:03:32.000Z,45
2023-02-27T11:04:48.000Z,45.1
2023-02-27T11:06:03.000Z,44.7
2023-02-27T11:07:19.000Z,46.1
2023-02-27T11:08:35.979Z,46.2
2023-02-27T11:09:52.164Z,46.6
2023-02-27T11:11:08.000Z,47.1
2023-02-27T11:12:24.000Z,47.5
2023-02-27T11:13:40.000Z,47.5
2023-02-27T11:14:57.000Z,47.5
2023-02-27T11:16:13.000Z,46.6
2023-02-27T11:17:29.000Z,46.6
2023-02-27T11:18:45.000Z,46.5
2023-02-27T11:20:01.000Z,46
2023-02-27T11:21:17.934Z,45.8
2023-02-27T11:22:33.000Z,45.4
2023-02-27T11:23:49.000Z,45.4
2023-02-27T11:25:05.000Z,46.7
2023-02-27T11:26:21.000Z,47
2023-02-27T11:27:38.000Z,45.9
2023-02-27T11:28:54.000Z,45.4
2023-02-27T11:30:09.000Z,45.4
2023-02-27T11:31:25.000Z,45.1
2023-02-27T11:32:41.000Z,45.9
2023-02-27T11:33:58.000Z,46
2023-02-27T11:35:14.000Z,45.1
2023-02-27T11:36:30.000Z,45.7
2023-02-27T11:37:46.000Z,46.5
2023-02-27T11:39:02.701Z,46.5
2023-02-27T11:40:18.000Z,46.7
2023-02-27T11:41:35.000Z,47.4
2023-02-27T11:42:51.000Z,47.2
2023-02-27T11:44:07.000Z,48.1
2023-02-27T11:45:23.000Z,48.4
2023-02-27T11:46:38.890Z,48.5
2023-02-27T11:47:55.000Z,48.5
2023-02-27T11:49:11.000Z,48.6
2023-02-27T11:50:27.000Z,48.9
2023-02-27T11:51:43.000Z,49.5
2023-02-27T11:52:59.000Z,49.7
2023-02-27T11:54:16.000Z,49.2
2023-02-27T11:55:32.000Z,49.1
2023-02-27T11:56:48.000Z,49
2023-02-27T11:58:04.000Z,49.1
2023-02-27T11:59:20.000Z,51
2023-02-27T12:00:37.000Z,48.6
2023-02-27T12:01:53.000Z,48
2023-02-27T12:03:08.000Z,47.6
2023-02-27T12:04:24.000Z,47.2
2023-02-27T12:05:40.000Z,47.2
2023-02-27T12:06:57.000Z,46.7
2023-02-27T12:08:13.000Z,47.3
2023-02-27T12:09:29.000Z,47.7
2023-02-27T12:10:45.000Z,48
2023-02-27T12:12:01.809Z,48.4
2023-02-27T12:13:18.000Z,48.9
2023-02-27T12:14:34.000Z,49.3
2023-02-27T12:15:50.000Z,49.3
2023-02-27T12:17:06.000Z,50.1
2023-02-27T12:18:22.000Z,50
2023-02-27T12:19:38.000Z,49.9
2023-02-27T12:20:54.000Z,49.6
2023-02-27T12:22:10.000Z,49
2023-02-27T12:23:26.000Z,48.8
2023-02-27T12:24:42.769Z,48.7
2023-02-27T12:25:59.000Z,48.2
2023-02-27T12:27:15.000Z,48.2
2023-02-27T12:28:31.000Z,48
2023-02-27T12:29:47.000Z,47.6
2023-02-27T12:31:03.000Z,47.5
2023-02-27T12:32:20.000Z,47.6
2023-02-27T12:33:36.000Z,47.3
2023-02-27T12:34:52.000Z,47.5
2023-02-27T12:36:07.000Z,47.2
2023-02-27T12:37:23.000Z,47.2
2023-02-27T12:38:40.000Z,47.1
2023-02-27T12:39:56.000Z,47
2023-02-27T12:41:12.000Z,46.9
2023-02-27T12:42:28.000Z,47.2
2023-02-27T12:43:44.000Z,47.3
2023-02-27T12:45:01.000Z,47.3
2023-02-27T12:46:17.000Z,47.2
2023-02-27T12:47:33.000Z,47.6
2023-02-27T12:48:49.000Z,47.9
2023-02-27T12:50:05.695Z,47.9
2023-02-27T12:51:21.000Z,47.9
2023-02-27T12:52:37.000Z,47.9
2023-02-27T12:53:53.000Z,49.4
2023-02-27T12:55:09.000Z,49.7
2023-02-27T12:56:25.696Z,50
2023-02-27T12:57:41.000Z,49.8
2023-02-27T12:58:58.000Z,49.1
2023-02-27T13:00:14.000Z,47.9
2023-02-27T13:01:30.000Z,47.6
2023-02-27T13:02:46.661Z,47.6
2023-02-27T13:04:02.866Z,48.1
2023-02-27T13:05:19.000Z,48.4
2023-02-27T13:06:35.000Z,48.5
2023-02-27T13:07:51.000Z,48.8
2023-02-27T13:09:06.000Z,48.8
2023-02-27T13:10:22.000Z,48.6
2023-02-27T13:11:39.000Z,48.7
2023-02-27T13:12:55.000Z,48.2
2023-02-27T13:14:11.000Z,48.2
2023-02-27T13:15:27.000Z,48
2023-02-27T13:16:43.000Z,48
2023-02-27T13:18:00.000Z,47.9
2023-02-27T13:19:16.000Z,48
2023-02-27T13:20:32.000Z,48.2
2023-02-27T13:21:48.000Z,48.4
2023-02-27T13:23:04.000Z,48.9
2023-02-27T13:24:21.000Z,48.2
2023-02-27T13:25:36.000Z,48.4
2023-02-27T13:26:52.000Z,48.6
2023-02-27T13:28:08.000Z,48.6
2023-02-27T13:29:24.000Z,47.8
2023-02-27T13:30:41.000Z,47.2
2023-02-27T13:31:57.000Z,47
2023-02-27T13:33:13.000Z,47.4
2023-02-27T13:34:29.000Z,47.3
2023-02-27T13:35:45.000Z,47.4
2023-02-27T13:37:02.000Z,47.6
2023-02-27T13:38:18.000Z,47.9
2023-02-27T13:39:34.377Z,48.1
2023-02-27T13:40:50.579Z,47.9
2023-02-27T13:42:05.000Z,48.3
2023-02-27T13:43:22.000Z,49.2
2023-02-27T13:44:38.000Z,49
2023-02-27T13:45:54.000Z,48.9
2023-02-27T13:47:10.000Z,49.2
2023-02-27T13:48:26.000Z,49.5
2023-02-27T13:49:43.000Z,49.3
2023-02-27T13:50:59.000Z,49.7
2023-02-27T13:52:15.349Z,50.4
2023-02-27T13:53:31.000Z,50.3
2023-02-27T13:54:47.000Z,52.2
2023-02-27T13:56:04.000Z,51.5
2023-02-27T13:57:20.000Z,51
2023-02-27T13:58:35.000Z,50.1
2023-02-27T13:59:51.000Z,50.5
2023-02-27T14:01:07.000Z,50.6
2023-02-27T14:02:24.000Z,50.3
2023-02-27T14:03:40.000Z,50
2023-02-27T14:04:56.000Z,49.6
2023-02-27T14:06:12.000Z,49.3
2023-02-27T14:07:28.000Z,49.3
2023-02-27T14:08:44.986Z,50
2023-02-27T14:10:01.000Z,50.9
2023-02-27T14:11:17.000Z,50.5
2023-02-27T14:12:33.000Z,50.5
2023-02-27T14:13:49.000Z,50.5
2023-02-27T14:15:05.000Z,50.4
2023-02-27T14:16:21.000Z,51.1
2023-02-27T14:17:37.000Z,51.3
2023-02-27T14:18:53.560Z,51.5
2023-02-27T14:20:09.000Z,51.5
2023-02-27T14:21:25.000Z,51.5
2023-02-27T14:22:42.000Z,51.6
2023-02-27T14:23:58.000Z,52
2023-02-27T14:25:14.000Z,52.1
2023-02-27T14:26:30.000Z,52.3
2023-02-27T14:27:46.000Z,51.9
2023-02-27T14:29:03.000Z,50.6
2023-02-27T14:30:19.000Z,50.3
2023-02-27T14:31:34.000Z,50.2
2023-02-27T14:32:50.000Z,50.6
2023-02-27T14:34:06.000Z,50.8
2023-02-27T14:35:23.000Z,50.9
2023-02-27T14:36:39.313Z,51.4
2023-02-27T14:37:55.000Z,51.6
2023-02-27T14:39:11.000Z,51.6
2023-02-27T14:40:27.000Z,51.8
2023-02-27T14:41:44.000Z,52
2023-02-27T14:43:00.000Z,52
2023-02-27T14:44:16.504Z,52
2023-02-27T14:45:32.000Z,52.2
2023-02-27T14:46:48.000Z,52.2
2023-02-27T14:48:04.000Z,52.5
2023-02-27T14:49:20.000Z,52.8
2023-02-27T14:50:36.000Z,52.4
2023-02-27T14:51:52.000Z,52.4
2023-02-27T14:53:08.000Z,51.6
2023-02-27T14:54:25.000Z,51.7
2023-02-27T14:55:41.000Z,51.9
2023-02-27T14:56:57.000Z,52
2023-02-27T14:58:13.000Z,51.5
2023-02-27T14:59:29.000Z,51.7
2023-02-27T15:00:46.000Z,51.6
2023-02-27T15:02:02.000Z,51.6
2023-02-27T15:03:18.000Z,51.6
2023-02-27T15:04:33.000Z,51.8
2023-02-27T15:05:49.000Z,51.6
2023-02-27T15:07:06.000Z,52
2023-02-27T15:08:22.000Z,52.6
2023-02-27T15:09:38.000Z,52.9
2023-02-27T15:10:54.000Z,52.9
2023-02-27T15:12:10.000Z,53.2
2023-02-27T15:13:27.000Z,53.5
2023-02-27T15:14:43.000Z,53.7
2023-02-27T15:15:59.000Z,53.6
2023-02-27T15:17:15.000Z,53.7
2023-02-27T15:18:31.000Z,53.9
2023-02-27T15:19:48.000Z,54.1
2023-02-27T15:21:03.000Z,54.3
2023-02-27T15:22:19.000Z,54.3
2023-02-27T15:23:35.000Z,54.1
2023-02-27T15:24:51.000Z,53.9
2023-02-27T15:26:08.000Z,53.7
2023-02-27T15:27:24.000Z,53
2023-02-27T15:28:40.000Z,52.6
2023-02-27T15:29:56.000Z,52.2
2023-02-27T15:31:12.791Z,53.3
2023-02-27T15:32:29.000Z,52.8
2023-02-27T15:33:45.000Z,52.7
2023-02-27T15:35:01.000Z,52.7
2023-02-27T15:36:17.000Z,52.3
2023-02-27T15:37:32.000Z,52.6
2023-02-27T15:38:49.000Z,52.3
2023-02-27T15:40:05.000Z,52.5
2023-02-27T15:41:21.366Z,52.6
2023-02-27T15:42:37.000Z,52.8
2023-02-27T15:43:53.000Z,53
2023-02-27T15:45:08.970Z,53.3
2023-02-27T15:46:25.000Z,52.7
2023-02-27T15:47:41.359Z,53
2023-02-27T15:48:57.000Z,52.7
2023-02-27T15:50:13.000Z,53
2023-02-27T15:51:29.000Z,52.9
2023-02-27T15:52:46.000Z,52.6
2023-02-27T15:54:02.000Z,52.7
2023-02-27T15:55:18.000Z,52.4
2023-02-27T15:56:34.000Z,52.8
2023-02-27T15:57:50.000Z,52.5
2023-02-27T15:59:07.000Z,52.4
2023-02-27T16:00:23.000Z,52.4
2023-02-27T16:01:38.000Z,52.5
2023-02-27T16:02:54.000Z,52.5
2023-02-27T16:04:10.000Z,52.9
2023-02-27T16:05:27.128Z,53.1
2023-02-27T16:06:43.000Z,53.2
2023-02-27T16:07:59.000Z,53.2
2023-02-27T16:09:15.718Z,53.3
2023-02-27T16:10:31.000Z,53.3
2023-02-27T16:11:48.112Z,53.4
2023-02-27T16:13:04.000Z,53.6
2023-02-27T16:14:20.000Z,53.5
2023-02-27T16:15:36.000Z,53.6
2023-02-27T16:16:52.000Z,53.9
2023-02-27T16:18:08.000Z,54
2023-02-27T16:19:24.000Z,53.7
2023-02-27T16:20:40.000Z,53.6
2023-02-27T16:21:56.000Z,53.6
2023-02-27T16:23:12.000Z,53.5
2023-02-27T16:24:29.000Z,53.5
2023-02-27T16:25:45.262Z,53.7
2023-02-27T16:27:01.000Z,53.9
2023-02-27T16:28:17.000Z,54.2
2023-02-27T16:29:33.000Z,54.2
2023-02-27T16:30:50.000Z,54.4
2023-02-27T16:32:06.000Z,54.6
2023-02-27T16:33:22.000Z,54.8
2023-02-27T16:34:37.000Z,54.8
2023-02-27T16:35:53.000Z,54.7
2023-02-27T16:37:10.000Z,54.8
2023-02-27T16:38:26.000Z,55
2023-02-27T16:39:42.000Z,54.6
2023-02-27T16:40:58.000Z,54.5
2023-02-27T16:42:14.000Z,54.5
2023-02-27T16:43:31.000Z,54.6
2023-02-27T16:44:47.000Z,54.7
2023-02-27T16:46:03.000Z,54.9
2023-02-27T16:47:19.000Z,54.9
2023-02-27T16:48:35.804Z,55
2023-02-27T16:49:52.000Z,54.6
2023-02-27T16:51:07.000Z,54.6
2023-02-27T16:52:23.000Z,54.7
2023-02-27T16:53:39.000Z,54.6
2023-02-27T16:54:55.000Z,54.5
2023-02-27T16:56:12.000Z,54.3
2023-02-27T16:57:28.000Z,54.2
2023-02-27T16:58:44.000Z,54.2
2023-02-27T17:00:00.000Z,54.2